Time;durP1;ratioP1;P1;durP2;ratioP2;P2;SDS_P1;SDS_P2;PMS_P1;PMS_P2;Temp;Humidity;BMP_temperature;BMP_pressure;BME280_temperature;BME280_humidity;BME280_pressure;Samples;Min_cycle;Max_cycle;Signal;HPM_P1;HPM_P2
2021/09/11 00:01:57;;;;;;;10.27;9.13;;;;;;;;;;4918193;29;20051;-43
2021/09/11 00:04:24;;;;;;;9.90;8.90;;;;;;;;;;4917361;29;20040;-42
2021/09/11 00:06:51;;;;;;;13.65;9.45;;;;;;;;;;4918089;29;20489;-42
2021/09/11 00:09:18;;;;;;;10.38;9.32;;;;;;;;;;4917808;29;20147;-42
2021/09/11 00:11:44;;;;;;;12.73;9.85;;;;;;;;;;4918111;29;20052;-43
2021/09/11 00:14:11;;;;;;;14.13;10.10;;;;;;;;;;4932791;29;20074;-43
2021/09/11 00:16:38;;;;;;;12.35;9.50;;;;;;;;;;4936905;29;20413;-42
2021/09/11 00:19:04;;;;;;;10.98;9.60;;;;;;;;;;4937154;29;20054;-43
2021/09/11 00:21:31;;;;;;;12.52;10.23;;;;;;;;;;4932185;29;20036;-43
2021/09/11 00:23:58;;;;;;;11.30;9.43;;;;;;;;;;4917276;29;20570;-46
2021/09/11 00:26:25;;;;;;;13.35;10.20;;;;;;;;;;4916601;29;20127;-43
2021/09/11 00:28:51;;;;;;;12.40;10.45;;;;;;;;;;4917752;29;20096;-43
2021/09/11 00:31:18;;;;;;;12.93;10.48;;;;;;;;;;4925911;29;20074;-44
2021/09/11 00:33:45;;;;;;;13.30;10.90;;;;;;;;;;4936301;29;20059;-43
2021/09/11 00:36:12;;;;;;;13.20;11.20;;;;;;;;;;4918616;29;20060;-42
2021/09/11 00:38:39;;;;;;;13.65;11.52;;;;;;;;;;4917694;29;20074;-42
2021/09/11 00:41:05;;;;;;;13.23;11.60;;;;;;;;;;4917955;29;20042;-42
2021/09/11 00:43:34;;;;;;;13.73;12.13;;;;;;;;;;4926552;29;20044;-43
2021/09/11 00:46:01;;;;;;;15.20;12.38;;;;;;;;;;4936469;29;20134;-43
2021/09/11 00:48:28;;;;;;;13.65;12.07;;;;;;;;;;4936390;29;20044;-43
2021/09/11 00:50:55;;;;;;;13.65;11.93;;;;;;;;;;4935260;29;20476;-42
2021/09/11 00:53:22;;;;;;;15.55;12.80;;;;;;;;;;4935648;29;20465;-44
2021/09/11 00:55:49;;;;;;;15.07;13.57;;;;;;;;;;4936305;29;20119;-42
2021/09/11 00:58:16;;;;;;;15.32;13.30;;;;;;;;;;4934168;29;20040;-43
2021/09/11 01:00:42;;;;;;;13.00;11.45;;;;;;;;;;4925107;29;20581;-45
2021/09/11 01:03:10;;;;;;;16.35;12.95;;;;;;;;;;4934053;29;20039;-44
2021/09/11 01:05:38;;;;;;;16.25;14.55;;;;;;;;;;4931928;29;20530;-42
2021/09/11 01:08:05;;;;;;;16.67;14.32;;;;;;;;;;4931351;29;20142;-43
2021/09/11 01:10:32;;;;;;;15.32;13.15;;;;;;;;;;4931153;29;20063;-42
2021/09/11 01:12:59;;;;;;;16.13;14.43;;;;;;;;;;4931670;29;20049;-45
2021/09/11 01:15:33;;;;;;;17.52;15.68;;;;;;;;;;4931091;29;20042;-47
2021/09/11 01:18:00;;;;;;;17.80;14.50;;;;;;;;;;4932149;29;20132;-41
2021/09/11 01:20:27;;;;;;;16.90;15.07;;;;;;;;;;4931083;29;20043;-47
2021/09/11 01:22:54;;;;;;;18.40;14.70;;;;;;;;;;4931163;29;20058;-44
2021/09/11 01:25:20;;;;;;;17.10;15.30;;;;;;;;;;4930579;29;20428;-44
2021/09/11 01:27:47;;;;;;;18.88;15.32;;;;;;;;;;4931823;29;20532;-43
2021/09/11 01:30:15;;;;;;;20.05;15.63;;;;;;;;;;4930711;29;20139;-45
2021/09/11 01:32:42;;;;;;;18.50;15.88;;;;;;;;;;4930657;29;20082;-44
2021/09/11 01:35:09;;;;;;;19.80;16.15;;;;;;;;;;4928936;29;20043;-46
2021/09/11 01:37:36;;;;;;;18.70;15.50;;;;;;;;;;4931039;29;20036;-45
2021/09/11 01:40:04;;;;;;;18.70;15.93;;;;;;;;;;4933912;29;20134;-45
2021/09/11 01:42:31;;;;;;;17.92;14.98;;;;;;;;;;4933814;29;20051;-46
2021/09/11 01:44:58;;;;;;;17.20;15.30;;;;;;;;;;4934465;29;20042;-45
2021/09/11 01:47:25;;;;;;;20.58;15.68;;;;;;;;;;4935179;29;20120;-45
2021/09/11 01:49:52;;;;;;;18.08;15.85;;;;;;;;;;4935048;29;20134;-39
2021/09/11 01:52:22;;;;;;;17.10;15.30;;;;;;;;;;4928543;29;20048;-46
2021/09/11 01:54:49;;;;;;;17.40;15.18;;;;;;;;;;4928960;29;20075;-45
2021/09/11 01:57:17;;;;;;;19.13;15.25;;;;;;;;;;4934647;29;20505;-44
2021/09/11 01:59:43;;;;;;;27.23;18.92;;;;;;;;;;4935260;29;20568;-45
2021/09/11 02:02:10;;;;;;;21.10;17.52;;;;;;;;;;4933741;29;20114;-43
2021/09/11 02:04:38;;;;;;;22.45;17.77;;;;;;;;;;4932516;29;20036;-45
2021/09/11 02:07:05;;;;;;;21.25;17.77;;;;;;;;;;4931778;29;20147;-45
2021/09/11 02:09:33;;;;;;;22.25;18.55;;;;;;;;;;4935054;29;20047;-45
2021/09/11 02:12:00;;;;;;;22.40;18.38;;;;;;;;;;4934051;29;20122;-48
2021/09/11 02:14:27;;;;;;;26.27;20.02;;;;;;;;;;4931951;29;20051;-45
2021/09/11 02:16:54;;;;;;;22.88;19.35;;;;;;;;;;4934695;29;20070;-44
2021/09/11 02:19:20;;;;;;;23.20;19.90;;;;;;;;;;4934901;29;20127;-49
2021/09/11 02:21:47;;;;;;;24.35;18.73;;;;;;;;;;4924846;29;20048;-48
2021/09/11 02:24:14;;;;;;;20.17;17.98;;;;;;;;;;4931311;29;20042;-45
2021/09/11 02:26:42;;;;;;;23.27;19.23;;;;;;;;;;4934431;29;20048;-45
2021/09/11 02:29:09;;;;;;;21.40;18.58;;;;;;;;;;4929489;29;20036;-48
2021/09/11 02:31:36;;;;;;;21.35;17.85;;;;;;;;;;4927236;29;20054;-46
2021/09/11 02:34:02;;;;;;;18.15;16.25;;;;;;;;;;4931225;29;20406;-44
2021/09/11 02:36:29;;;;;;;19.83;17.48;;;;;;;;;;4933291;29;20050;-49
2021/09/11 02:38:56;;;;;;;21.63;19.27;;;;;;;;;;4934566;29;20123;-50
2021/09/11 02:41:24;;;;;;;21.35;19.02;;;;;;;;;;4934432;29;20048;-48
2021/09/11 02:43:50;;;;;;;19.67;17.52;;;;;;;;;;4932407;29;20413;-43
2021/09/11 02:46:17;;;;;;;23.30;17.63;;;;;;;;;;4934143;29;20050;-46
2021/09/11 02:48:44;;;;;;;19.17;17.17;;;;;;;;;;4934488;29;20122;-43
2021/09/11 02:51:11;;;;;;;19.70;17.17;;;;;;;;;;4929996;29;20048;-47
2021/09/11 02:53:38;;;;;;;19.08;17.13;;;;;;;;;;4926487;29;20561;-49
2021/09/11 02:56:04;;;;;;;19.30;15.85;;;;;;;;;;4934282;29;20046;-40
2021/09/11 02:58:31;;;;;;;16.95;14.48;;;;;;;;;;4933864;29;20382;-42
2021/09/11 03:00:58;;;;;;;16.65;14.75;;;;;;;;;;4930286;29;20040;-40
2021/09/11 03:03:26;;;;;;;16.42;14.73;;;;;;;;;;4933611;29;20131;-39
2021/09/11 03:05:53;;;;;;;16.55;13.45;;;;;;;;;;4932845;29;20079;-44
2021/09/11 03:08:20;;;;;;;13.68;12.20;;;;;;;;;;4934285;29;20054;-40
2021/09/11 03:10:47;;;;;;;14.07;12.10;;;;;;;;;;4934588;29;20047;-39
2021/09/11 03:13:15;;;;;;;12.55;10.23;;;;;;;;;;4932390;29;20044;-47
2021/09/11 03:15:41;;;;;;;12.32;11.05;;;;;;;;;;4932886;29;20115;-39
2021/09/11 03:18:08;;;;;;;10.40;9.30;;;;;;;;;;4933870;29;20075;-49
2021/09/11 03:20:35;;;;;;;11.82;10.27;;;;;;;;;;4932316;29;20040;-39
2021/09/11 03:23:02;;;;;;;11.98;9.50;;;;;;;;;;4930709;29;20066;-48
2021/09/11 03:25:29;;;;;;;11.40;9.93;;;;;;;;;;4937773;29;20078;-40
2021/09/11 03:27:56;;;;;;;12.25;10.00;;;;;;;;;;4937600;29;20043;-48
2021/09/11 03:30:23;;;;;;;12.00;9.90;;;;;;;;;;4937568;29;20071;-43
2021/09/11 03:32:49;;;;;;;10.38;9.27;;;;;;;;;;4932518;29;20051;-40
2021/09/11 03:35:19;;;;;;;11.48;9.00;;;;;;;;;;4934984;29;20048;-47
2021/09/11 03:37:46;;;;;;;11.73;9.45;;;;;;;;;;4936173;29;20035;-48
2021/09/11 03:40:13;;;;;;;10.63;8.93;;;;;;;;;;4937151;29;20074;-46
2021/09/11 03:42:40;;;;;;;10.63;9.52;;;;;;;;;;4932262;29;20044;-46
2021/09/11 03:45:07;;;;;;;11.23;10.02;;;;;;;;;;4933210;29;20131;-47
2021/09/11 03:47:34;;;;;;;13.02;10.55;;;;;;;;;;4937555;29;20079;-45
2021/09/11 03:50:01;;;;;;;10.32;9.00;;;;;;;;;;4922514;29;20139;-45
2021/09/11 03:52:28;;;;;;;12.43;10.18;;;;;;;;;;4927220;29;20150;-47
2021/09/11 03:54:55;;;;;;;11.65;8.98;;;;;;;;;;4935653;29;20047;-47
2021/09/11 03:57:22;;;;;;;11.48;9.38;;;;;;;;;;4936778;29;20135;-46
2021/09/11 03:59:49;;;;;;;10.93;9.43;;;;;;;;;;4935812;29;20126;-47
2021/09/11 04:02:15;;;;;;;10.95;9.85;;;;;;;;;;4930884;29;20087;-44
2021/09/11 04:04:42;;;;;;;11.20;10.00;;;;;;;;;;4933896;29;20031;-47
2021/09/11 04:07:09;;;;;;;9.73;8.55;;;;;;;;;;4936832;29;20138;-40
2021/09/11 04:09:36;;;;;;;9.95;7.72;;;;;;;;;;4937231;29;20082;-42
2021/09/11 04:12:03;;;;;;;9.95;7.20;;;;;;;;;;4936910;29;20098;-40
2021/09/11 04:14:30;;;;;;;9.73;7.78;;;;;;;;;;4925065;29;20135;-40
2021/09/11 04:16:56;;;;;;;9.45;7.85;;;;;;;;;;4936572;29;20036;-41
2021/09/11 04:19:23;;;;;;;9.10;7.30;;;;;;;;;;4935815;29;20066;-40
2021/09/11 04:21:50;;;;;;;8.95;7.28;;;;;;;;;;4933471;29;20055;-40
2021/09/11 04:24:17;;;;;;;8.35;7.22;;;;;;;;;;4934010;29;20039;-40
2021/09/11 04:26:44;;;;;;;9.50;7.95;;;;;;;;;;4936966;29;20054;-43
2021/09/11 04:29:10;;;;;;;8.20;6.93;;;;;;;;;;4936788;29;20043;-44
2021/09/11 04:31:37;;;;;;;8.38;7.22;;;;;;;;;;4921240;29;20039;-41
2021/09/11 04:34:04;;;;;;;9.52;7.55;;;;;;;;;;4933647;29;20047;-40
2021/09/11 04:36:31;;;;;;;9.85;7.97;;;;;;;;;;4935378;29;20134;-43
2021/09/11 04:38:58;;;;;;;8.52;7.40;;;;;;;;;;4936741;29;20119;-40
2021/09/11 04:41:25;;;;;;;10.35;7.70;;;;;;;;;;4936363;29;20123;-43
2021/09/11 04:43:52;;;;;;;8.80;7.88;;;;;;;;;;4927405;29;20470;-40
2021/09/11 04:46:19;;;;;;;8.63;7.72;;;;;;;;;;4936681;29;20510;-42
2021/09/11 04:48:46;;;;;;;10.60;8.63;;;;;;;;;;4935152;29;20051;-42
2021/09/11 04:51:13;;;;;;;9.05;7.97;;;;;;;;;;4929290;29;20052;-45
2021/09/11 04:53:39;;;;;;;9.70;7.50;;;;;;;;;;4935687;29;20040;-43
2021/09/11 04:56:06;;;;;;;9.50;7.80;;;;;;;;;;4935158;29;20445;-44
2021/09/11 04:58:33;;;;;;;11.55;8.27;;;;;;;;;;4936708;29;20501;-42
2021/09/11 05:01:00;;;;;;;10.32;8.05;;;;;;;;;;4932497;29;20051;-43
2021/09/11 05:03:27;;;;;;;12.52;8.35;;;;;;;;;;4935436;29;20051;-44
2021/09/11 05:05:54;;;;;;;10.45;8.60;;;;;;;;;;4935009;29;20044;-42
2021/09/11 05:08:22;;;;;;;9.77;8.10;;;;;;;;;;4935717;29;20493;-42
2021/09/11 05:10:48;;;;;;;9.20;8.20;;;;;;;;;;4935006;29;20790;-45
2021/09/11 05:13:15;;;;;;;9.52;7.90;;;;;;;;;;4932921;29;20118;-42
2021/09/11 05:15:42;;;;;;;9.90;8.75;;;;;;;;;;4935023;29;20284;-47
2021/09/11 05:18:09;;;;;;;9.40;8.40;;;;;;;;;;4936065;29;20504;-47
2021/09/11 05:20:35;;;;;;;9.88;7.80;;;;;;;;;;4935697;29;20075;-48
2021/09/11 05:23:02;;;;;;;9.57;8.10;;;;;;;;;;4934397;29;20139;-47
2021/09/11 05:25:29;;;;;;;10.77;9.15;;;;;;;;;;4935385;29;20044;-43
2021/09/11 05:27:56;;;;;;;11.55;8.57;;;;;;;;;;4935681;29;20075;-43
2021/09/11 05:30:23;;;;;;;10.18;8.55;;;;;;;;;;4932161;29;20040;-44
2021/09/11 05:32:49;;;;;;;10.15;8.48;;;;;;;;;;4935572;29;20092;-45
2021/09/11 05:35:17;;;;;;;9.77;8.77;;;;;;;;;;4931582;29;20055;-45
2021/09/11 05:37:44;;;;;;;8.20;7.35;;;;;;;;;;4933798;29;20131;-43
2021/09/11 05:40:10;;;;;;;13.48;7.75;;;;;;;;;;4935572;29;20071;-43
2021/09/11 05:42:37;;;;;;;10.20;8.27;;;;;;;;;;4932056;29;20070;-43
2021/09/11 05:45:05;;;;;;;9.07;8.15;;;;;;;;;;4934959;29;20086;-44
2021/09/11 05:47:33;;;;;;;9.27;8.07;;;;;;;;;;4934790;29;20047;-44
2021/09/11 05:50:00;;;;;;;9.70;7.57;;;;;;;;;;4935157;29;20127;-43
2021/09/11 05:52:28;;;;;;;8.63;7.72;;;;;;;;;;4927443;29;20066;-42
2021/09/11 05:54:55;;;;;;;10.43;7.90;;;;;;;;;;4934737;29;20134;-43
2021/09/11 05:57:24;;;;;;;10.35;7.82;;;;;;;;;;4934585;29;20039;-43
2021/09/11 05:59:51;;;;;;;9.85;8.07;;;;;;;;;;4935056;29;20043;-41
2021/09/11 06:02:18;;;;;;;8.52;7.38;;;;;;;;;;4934092;29;20036;-46
2021/09/11 06:04:46;;;;;;;9.07;8.13;;;;;;;;;;4927601;29;20494;-42
2021/09/11 06:07:12;;;;;;;9.80;7.80;;;;;;;;;;4932172;29;20047;-42
2021/09/11 06:09:39;;;;;;;10.65;8.40;;;;;;;;;;4933635;29;20064;-43
2021/09/11 06:12:10;;;;;;;8.77;7.88;;;;;;;;;;4934238;29;20130;-43
2021/09/11 06:14:37;;;;;;;11.88;8.90;;;;;;;;;;4934310;29;20126;-44
2021/09/11 06:17:04;;;;;;;8.45;7.55;;;;;;;;;;4933955;29;20043;-45
2021/09/11 06:19:32;;;;;;;8.68;7.78;;;;;;;;;;4934672;29;20569;-43
2021/09/11 06:21:59;;;;;;;10.90;7.63;;;;;;;;;;4928116;29;20100;-43
2021/09/11 06:24:26;;;;;;;9.63;8.38;;;;;;;;;;4933941;29;20043;-43
2021/09/11 06:26:53;;;;;;;8.90;7.88;;;;;;;;;;4934588;29;20043;-43
2021/09/11 06:29:20;;;;;;;9.68;8.68;;;;;;;;;;4928044;29;20477;-42
2021/09/11 06:31:47;;;;;;;12.15;8.88;;;;;;;;;;4929433;29;20111;-43
2021/09/11 06:34:14;;;;;;;8.77;7.72;;;;;;;;;;4931164;29;20048;-43
2021/09/11 06:36:41;;;;;;;8.13;7.15;;;;;;;;;;4927607;29;20047;-44
2021/09/11 06:39:08;;;;;;;9.48;7.47;;;;;;;;;;4934318;29;20036;-45
2021/09/11 06:41:35;;;;;;;8.57;7.22;;;;;;;;;;4925547;29;20425;-45
2021/09/11 06:44:01;;;;;;;11.98;9.30;;;;;;;;;;4922919;29;20121;-45
2021/09/11 06:46:28;;;;;;;10.00;9.00;;;;;;;;;;4923861;29;20104;-43
2021/09/11 06:48:55;;;;;;;9.27;7.80;;;;;;;;;;4928014;29;20048;-45
2021/09/11 06:51:22;;;;;;;10.02;7.63;;;;;;;;;;4932725;29;20143;-43
2021/09/11 06:53:49;;;;;;;9.70;7.38;;;;;;;;;;4930064;29;20163;-43
2021/09/11 06:56:16;;;;;;;7.88;6.70;;;;;;;;;;4934420;29;20126;-46
2021/09/11 06:58:43;;;;;;;8.38;7.57;;;;;;;;;;4933710;29;20040;-43
2021/09/11 07:01:10;;;;;;;10.73;7.53;;;;;;;;;;4927751;29;20051;-44
2021/09/11 07:03:37;;;;;;;9.13;8.07;;;;;;;;;;4929255;29;20051;-43
2021/09/11 07:06:05;;;;;;;8.27;7.15;;;;;;;;;;4923315;29;20977;-42
2021/09/11 07:08:34;;;;;;;8.48;6.95;;;;;;;;;;4932982;29;20052;-43
2021/09/11 07:11:00;;;;;;;8.32;6.85;;;;;;;;;;4934321;29;20082;-43
2021/09/11 07:13:27;;;;;;;8.10;7.13;;;;;;;;;;4933861;29;20139;-43
2021/09/11 07:15:54;;;;;;;9.32;7.80;;;;;;;;;;4932990;29;20103;-46
2021/09/11 07:18:21;;;;;;;9.40;6.90;;;;;;;;;;4933698;29;20079;-44
2021/09/11 07:20:48;;;;;;;7.82;6.45;;;;;;;;;;4934419;29;20035;-45
2021/09/11 07:23:14;;;;;;;7.63;6.78;;;;;;;;;;4927288;29;20505;-43
2021/09/11 07:25:41;;;;;;;7.85;6.68;;;;;;;;;;4933549;29;20496;-46
2021/09/11 07:28:08;;;;;;;8.38;6.68;;;;;;;;;;4933953;29;20138;-49
2021/09/11 07:30:35;;;;;;;7.70;6.85;;;;;;;;;;4931419;29;20464;-46
2021/09/11 07:33:02;;;;;;;7.00;5.97;;;;;;;;;;4929808;29;20055;-44
2021/09/11 07:35:29;;;;;;;8.77;6.82;;;;;;;;;;4923519;29;20052;-47
2021/09/11 07:37:56;;;;;;;8.13;6.38;;;;;;;;;;4933843;29;20052;-50
2021/09/11 07:40:23;;;;;;;7.10;6.30;;;;;;;;;;4933378;29;20054;-47
2021/09/11 07:42:50;;;;;;;6.97;6.28;;;;;;;;;;4934611;29;20046;-45
2021/09/11 07:45:18;;;;;;;6.70;6.00;;;;;;;;;;4926522;29;20036;-47
2021/09/11 07:47:44;;;;;;;8.63;6.70;;;;;;;;;;4928479;29;20048;-46
2021/09/11 07:50:12;;;;;;;7.40;6.28;;;;;;;;;;4915274;29;20095;-46
2021/09/11 07:52:39;;;;;;;6.53;5.82;;;;;;;;;;4933171;29;20094;-44
2021/09/11 07:55:07;;;;;;;7.30;6.10;;;;;;;;;;4930964;29;20415;-47
2021/09/11 07:57:34;;;;;;;6.47;5.72;;;;;;;;;;4933896;29;20048;-45
2021/09/11 08:00:01;;;;;;;7.30;6.10;;;;;;;;;;4933666;29;20118;-43
2021/09/11 08:02:30;;;;;;;6.15;5.53;;;;;;;;;;4933472;29;20048;-44
2021/09/11 08:04:57;;;;;;;6.78;6.00;;;;;;;;;;4930997;29;20047;-43
2021/09/11 08:07:27;;;;;;;9.30;6.03;;;;;;;;;;4923192;29;20102;-46
2021/09/11 08:09:55;;;;;;;6.85;5.90;;;;;;;;;;4935402;29;20048;-46
2021/09/11 08:12:22;;;;;;;8.10;5.63;;;;;;;;;;4929620;29;20140;-47
2021/09/11 08:14:49;;;;;;;7.15;5.53;;;;;;;;;;4934333;29;20163;-45
2021/09/11 08:17:15;;;;;;;7.10;5.88;;;;;;;;;;4920420;29;20489;-44
2021/09/11 08:19:42;;;;;;;6.28;5.43;;;;;;;;;;4936597;29;20441;-43
2021/09/11 08:22:09;;;;;;;6.38;5.38;;;;;;;;;;4934685;29;20134;-46
2021/09/11 08:24:36;;;;;;;6.70;6.00;;;;;;;;;;4918828;29;20063;-45
2021/09/11 08:27:03;;;;;;;6.15;5.30;;;;;;;;;;4927894;29;20596;-46
2021/09/11 08:29:30;;;;;;;6.60;5.80;;;;;;;;;;4925740;29;20040;-44
2021/09/11 08:31:56;;;;;;;6.93;5.40;;;;;;;;;;4923861;29;20044;-46
2021/09/11 08:34:23;;;;;;;6.95;5.63;;;;;;;;;;4918515;29;20122;-44
2021/09/11 08:36:50;;;;;;;7.20;5.82;;;;;;;;;;4935876;29;20103;-44
2021/09/11 08:39:24;;;;;;;5.82;4.95;;;;;;;;;;4937374;29;20390;-46
2021/09/11 08:41:52;;;;;;;5.93;5.32;;;;;;;;;;4933724;29;20047;-46
2021/09/11 08:44:19;;;;;;;6.72;5.60;;;;;;;;;;4917436;29;20048;-45
2021/09/11 08:46:48;;;;;;;7.15;5.40;;;;;;;;;;4930778;29;20046;-50
2021/09/11 08:49:18;;;;;;;5.88;5.05;;;;;;;;;;4932491;29;20118;-46
2021/09/11 08:51:45;;;;;;;6.28;4.82;;;;;;;;;;4924999;29;20434;-47
2021/09/11 08:54:18;;;;;;;6.50;5.65;;;;;;;;;;4929209;29;20524;-46
2021/09/11 08:56:47;;;;;;;6.82;5.50;;;;;;;;;;4935965;29;20138;-50
2021/09/11 08:59:15;;;;;;;6.22;5.45;;;;;;;;;;4931204;29;20037;-45
2021/09/11 09:01:43;;;;;;;10.50;5.20;;;;;;;;;;4936234;29;20040;-48
2021/09/11 09:04:10;;;;;;;6.22;4.88;;;;;;;;;;4933375;29;20055;-44
2021/09/11 09:06:37;;;;;;;8.57;5.47;;;;;;;;;;4930142;29;20074;-47
2021/09/11 09:09:12;;;;;;;6.82;5.68;;;;;;;;;;4936527;29;20043;-47
2021/09/11 09:11:41;;;;;;;5.97;5.10;;;;;;;;;;4935702;29;20497;-46
2021/09/11 09:14:11;;;;;;;7.07;5.85;;;;;;;;;;4933724;29;20044;-48
2021/09/11 09:16:39;;;;;;;8.68;6.18;;;;;;;;;;4932872;29;20071;-44
2021/09/11 09:19:18;;;;;;;6.32;5.55;;;;;;;;;;4934093;29;20055;-44
2021/09/11 09:21:46;;;;;;;7.20;6.20;;;;;;;;;;4933378;29;20039;-45
2021/09/11 09:24:14;;;;;;;6.43;5.68;;;;;;;;;;4932445;29;20078;-46
2021/09/11 09:27:01;;;;;;;7.28;5.80;;;;;;;;;;4931851;29;20040;-47
2021/09/11 09:29:27;;;;;;;6.60;5.90;;;;;;;;;;4932595;29;20074;-45
2021/09/11 09:31:56;;;;;;;8.75;5.95;;;;;;;;;;4934523;29;20094;-48
2021/09/11 09:34:36;;;;;;;7.95;6.28;;;;;;;;;;4925026;29;20128;-46
2021/09/11 09:37:07;;;;;;;8.25;6.57;;;;;;;;;;4916626;29;20135;-45
2021/09/11 09:39:41;;;;;;;6.70;6.00;;;;;;;;;;4926550;29;20055;-47
2021/09/11 09:42:09;;;;;;;8.93;6.55;;;;;;;;;;4921112;29;20060;-40
2021/09/11 09:44:40;;;;;;;7.32;6.13;;;;;;;;;;4916005;29;20127;-40
2021/09/11 09:47:10;;;;;;;7.88;5.97;;;;;;;;;;4922866;29;20051;-41
2021/09/11 09:49:37;;;;;;;7.25;6.20;;;;;;;;;;4916515;29;20048;-42
2021/09/11 09:52:04;;;;;;;9.63;6.80;;;;;;;;;;4927880;29;20040;-39
2021/09/11 09:54:31;;;;;;;7.03;6.07;;;;;;;;;;4925640;29;20058;-40
2021/09/11 09:56:58;;;;;;;6.57;5.88;;;;;;;;;;4915366;29;20502;-41
2021/09/11 09:59:25;;;;;;;7.35;5.75;;;;;;;;;;4916452;29;20068;-46
2021/09/11 10:01:52;;;;;;;6.28;5.43;;;;;;;;;;4916683;29;20510;-40
2021/09/11 10:04:19;;;;;;;6.95;6.18;;;;;;;;;;4918135;29;20047;-42
2021/09/11 10:07:01;;;;;;;8.25;6.35;;;;;;;;;;4935416;29;20126;-41
2021/09/11 10:09:28;;;;;;;10.05;6.35;;;;;;;;;;4935422;29;20050;-44
2021/09/11 10:11:55;;;;;;;8.07;6.32;;;;;;;;;;4935351;29;20497;-42
2021/09/11 10:14:22;;;;;;;6.85;5.90;;;;;;;;;;4925197;29;20040;-45
2021/09/11 10:16:57;;;;;;;6.45;5.35;;;;;;;;;;4915938;29;20491;-44
2021/09/11 10:19:25;;;;;;;8.70;6.18;;;;;;;;;;4916067;29;20075;-44
2021/09/11 10:22:04;;;;;;;8.40;6.30;;;;;;;;;;4915880;29;20099;-46
2021/09/11 10:24:32;;;;;;;7.90;5.93;;;;;;;;;;4915337;29;20148;-42
2021/09/11 10:27:08;;;;;;;6.93;5.85;;;;;;;;;;4915840;29;20044;-42
2021/09/11 10:29:46;;;;;;;6.63;5.65;;;;;;;;;;4915640;29;20513;-43
2021/09/11 10:32:15;;;;;;;6.78;5.93;;;;;;;;;;4914452;29;20071;-42
2021/09/11 10:35:01;;;;;;;7.57;6.13;;;;;;;;;;4913768;29;20107;-47
2021/09/11 10:37:37;;;;;;;8.35;6.15;;;;;;;;;;4915573;29;20051;-42
2021/09/11 10:40:21;;;;;;;6.57;5.93;;;;;;;;;;4898992;29;20219;-44
2021/09/11 10:43:01;;;;;;;7.22;5.75;;;;;;;;;;4915527;29;20066;-43
2021/09/11 10:45:48;;;;;;;7.95;6.35;;;;;;;;;;4914299;29;20047;-42
2021/09/11 10:48:30;;;;;;;7.15;6.18;;;;;;;;;;4915334;29;20055;-44
2021/09/11 10:50:57;;;;;;;6.80;6.10;;;;;;;;;;4915392;29;20055;-42
2021/09/11 10:53:24;;;;;;;7.28;6.45;;;;;;;;;;4914273;29;20363;-42
2021/09/11 10:55:51;;;;;;;9.27;6.50;;;;;;;;;;4915407;29;20139;-45
2021/09/11 10:58:21;;;;;;;6.75;6.05;;;;;;;;;;4929902;29;20048;-42
2021/09/11 11:00:58;;;;;;;7.97;6.32;;;;;;;;;;4920140;29;20135;-43
2021/09/11 11:03:25;;;;;;;7.05;6.28;;;;;;;;;;4934141;29;20067;-43
2021/09/11 11:06:02;;;;;;;7.05;6.25;;;;;;;;;;4918904;29;20131;-44
2021/09/11 11:08:30;;;;;;;7.07;6.38;;;;;;;;;;4915309;29;20072;-45
2021/09/11 11:10:57;;;;;;;7.95;6.22;;;;;;;;;;4915118;29;20067;-44
2021/09/11 11:13:24;;;;;;;7.45;6.15;;;;;;;;;;4914812;29;20048;-44
2021/09/11 11:15:57;;;;;;;9.23;7.35;;;;;;;;;;4914029;29;20132;-44
2021/09/11 11:18:28;;;;;;;8.48;7.10;;;;;;;;;;4915333;29;20482;-43
2021/09/11 11:20:54;;;;;;;8.95;6.88;;;;;;;;;;4915234;29;20079;-42
2021/09/11 11:23:22;;;;;;;7.65;6.85;;;;;;;;;;4914798;29;20127;-41
2021/09/11 11:25:50;;;;;;;8.18;6.65;;;;;;;;;;4915370;29;20068;-41
2021/09/11 11:28:18;;;;;;;8.05;6.25;;;;;;;;;;4915363;29;20044;-41
2021/09/11 11:30:47;;;;;;;8.95;6.35;;;;;;;;;;4914836;29;20058;-43
2021/09/11 11:33:13;;;;;;;8.38;5.90;;;;;;;;;;4914577;29;20555;-41
2021/09/11 11:35:41;;;;;;;7.82;6.38;;;;;;;;;;4914827;29;20122;-42
2021/09/11 11:38:08;;;;;;;7.40;6.10;;;;;;;;;;4914826;29;20041;-43
2021/09/11 11:40:35;;;;;;;6.18;5.47;;;;;;;;;;4915011;29;20123;-43
2021/09/11 11:43:03;;;;;;;6.38;5.57;;;;;;;;;;4914941;29;20450;-42
2021/09/11 11:45:30;;;;;;;7.03;5.82;;;;;;;;;;4916768;29;20402;-44
2021/09/11 11:47:59;;;;;;;6.85;5.68;;;;;;;;;;4918837;29;20095;-44
2021/09/11 11:50:31;;;;;;;7.85;5.78;;;;;;;;;;4918808;29;20048;-42
2021/09/11 11:52:57;;;;;;;6.80;5.72;;;;;;;;;;4919215;29;20044;-45
2021/09/11 11:55:25;;;;;;;7.55;6.07;;;;;;;;;;4918628;29;20047;-44
2021/09/11 11:57:52;;;;;;;6.30;5.65;;;;;;;;;;4918565;29;20505;-46
2021/09/11 12:00:19;;;;;;;6.78;5.60;;;;;;;;;;4918807;29;20106;-43
2021/09/11 12:02:47;;;;;;;6.07;5.45;;;;;;;;;;4918598;29;20048;-44
2021/09/11 12:05:15;;;;;;;7.35;6.00;;;;;;;;;;4918138;29;20055;-44
2021/09/11 12:07:51;;;;;;;8.10;6.68;;;;;;;;;;4933222;29;20461;-43
2021/09/11 12:10:18;;;;;;;6.47;5.78;;;;;;;;;;4918610;29;20048;-42
2021/09/11 12:12:44;;;;;;;7.25;5.80;;;;;;;;;;4918627;29;20251;-43
2021/09/11 12:15:13;;;;;;;6.50;5.80;;;;;;;;;;4918009;29;20059;-44
2021/09/11 12:17:55;;;;;;;6.38;5.78;;;;;;;;;;4918340;29;20052;-44
2021/09/11 12:20:51;;;;;;;9.25;6.00;;;;;;;;;;4918389;29;20090;-47
2021/09/11 12:23:18;;;;;;;6.18;5.45;;;;;;;;;;4918055;29;20055;-48
2021/09/11 12:25:54;;;;;;;6.22;5.63;;;;;;;;;;4918276;29;20294;-44
2021/09/11 12:28:39;;;;;;;6.95;5.65;;;;;;;;;;4918661;29;20075;-45
2021/09/11 12:31:18;;;;;;;7.50;5.82;;;;;;;;;;4918240;29;20050;-45
2021/09/11 12:33:51;;;;;;;7.55;5.72;;;;;;;;;;4917952;29;20095;-40
2021/09/11 12:36:18;;;;;;;6.88;5.50;;;;;;;;;;4917994;29;20479;-42
2021/09/11 12:38:45;;;;;;;6.88;6.13;;;;;;;;;;4918065;29;20558;-40
2021/09/11 12:41:12;;;;;;;8.38;6.90;;;;;;;;;;4918180;29;20091;-41
2021/09/11 12:43:38;;;;;;;7.55;6.68;;;;;;;;;;4916943;29;20048;-40
2021/09/11 12:46:05;;;;;;;11.43;7.72;;;;;;;;;;4917905;29;20058;-43
2021/09/11 12:48:34;;;;;;;11.80;7.55;;;;;;;;;;4918076;29;20474;-42
2021/09/11 12:51:01;;;;;;;9.57;7.53;;;;;;;;;;4916726;29;20052;-40
2021/09/11 12:53:28;;;;;;;6.00;5.18;;;;;;;;;;4917869;29;20056;-42
2021/09/11 12:55:55;;;;;;;5.60;4.82;;;;;;;;;;4917082;29;20538;-44
2021/09/11 12:58:22;;;;;;;5.53;4.57;;;;;;;;;;4917580;29;20087;-43
2021/09/11 13:00:49;;;;;;;6.20;4.60;;;;;;;;;;4917019;29;20075;-40
2021/09/11 13:03:16;;;;;;;6.20;4.95;;;;;;;;;;4917378;29;20437;-43
2021/09/11 13:05:43;;;;;;;4.70;3.70;;;;;;;;;;4917747;29;20539;-40
2021/09/11 13:08:10;;;;;;;4.85;3.80;;;;;;;;;;4918033;29;20430;-40
2021/09/11 13:10:36;;;;;;;6.60;4.10;;;;;;;;;;4916577;29;20391;-40
2021/09/11 13:13:03;;;;;;;6.22;4.03;;;;;;;;;;4917432;29;20126;-44
2021/09/11 13:15:30;;;;;;;4.75;4.00;;;;;;;;;;4917570;29;20048;-44
2021/09/11 13:17:57;;;;;;;5.05;3.25;;;;;;;;;;4917535;29;20577;-46
2021/09/11 13:20:23;;;;;;;4.32;3.53;;;;;;;;;;4917351;29;20060;-42
2021/09/11 13:22:50;;;;;;;5.00;3.75;;;;;;;;;;4917597;29;20131;-46
2021/09/11 13:25:17;;;;;;;9.90;4.80;;;;;;;;;;4917575;29;20425;-42
2021/09/11 13:27:44;;;;;;;5.55;4.65;;;;;;;;;;4917442;29;20048;-44
2021/09/11 13:30:11;;;;;;;8.13;4.50;;;;;;;;;;4917182;29;20050;-44
2021/09/11 13:32:38;;;;;;;5.43;4.57;;;;;;;;;;4917050;29;20083;-48
2021/09/11 13:35:05;;;;;;;5.72;4.40;;;;;;;;;;4916825;29;20098;-44
2021/09/11 13:37:32;;;;;;;6.53;4.60;;;;;;;;;;4917162;29;20048;-48
2021/09/11 13:39:59;;;;;;;5.40;4.25;;;;;;;;;;4917113;29;20052;-42
2021/09/11 13:42:25;;;;;;;5.07;4.00;;;;;;;;;;4919529;29;20044;-42
2021/09/11 13:44:53;;;;;;;6.05;4.63;;;;;;;;;;4935821;29;20131;-44
2021/09/11 13:47:19;;;;;;;5.57;4.47;;;;;;;;;;4934822;29;20082;-44
2021/09/11 13:49:46;;;;;;;6.35;4.45;;;;;;;;;;4934613;29;20122;-43
2021/09/11 13:52:13;;;;;;;6.75;4.70;;;;;;;;;;4919900;29;20511;-45
2021/09/11 13:54:42;;;;;;;6.57;5.25;;;;;;;;;;4916637;29;20466;-43
2021/09/11 13:57:10;;;;;;;6.22;4.47;;;;;;;;;;4915485;29;20352;-49
2021/09/11 13:59:39;;;;;;;6.10;4.82;;;;;;;;;;4916837;29;20151;-48
2021/09/11 14:02:06;;;;;;;5.35;4.70;;;;;;;;;;4934360;29;20138;-46
2021/09/11 14:04:33;;;;;;;6.10;4.65;;;;;;;;;;4930531;29;20075;-45
2021/09/11 14:07:00;;;;;;;7.97;4.75;;;;;;;;;;4916485;29;20490;-45
2021/09/11 14:09:27;;;;;;;5.40;4.70;;;;;;;;;;4916391;29;20052;-48
2021/09/11 14:11:54;;;;;;;6.38;4.35;;;;;;;;;;4916610;29;20113;-47
2021/09/11 14:14:20;;;;;;;5.25;4.00;;;;;;;;;;4920109;29;20134;-42
2021/09/11 14:16:48;;;;;;;6.95;4.05;;;;;;;;;;4935353;29;20504;-47
2021/09/11 14:19:15;;;;;;;5.75;4.45;;;;;;;;;;4935181;29;20044;-44
2021/09/11 14:21:41;;;;;;;5.65;4.30;;;;;;;;;;4935400;29;20122;-40
2021/09/11 14:24:08;;;;;;;5.70;4.53;;;;;;;;;;4920485;29;20522;-40
2021/09/11 14:26:35;;;;;;;6.07;4.38;;;;;;;;;;4916505;29;20049;-42
2021/09/11 14:29:03;;;;;;;5.05;4.25;;;;;;;;;;4916128;29;20514;-45
2021/09/11 14:31:29;;;;;;;4.57;3.67;;;;;;;;;;4916097;29;20585;-50
2021/09/11 14:33:56;;;;;;;4.43;3.10;;;;;;;;;;4915614;29;20107;-45
2021/09/11 14:36:23;;;;;;;4.15;3.50;;;;;;;;;;4915973;29;20052;-44
2021/09/11 14:38:50;;;;;;;5.03;3.63;;;;;;;;;;4916139;29;20079;-47
2021/09/11 14:41:17;;;;;;;4.95;3.40;;;;;;;;;;4916304;29;20420;-47